createdAt,value
2023-10-06T00:01:28.598Z,13.21
2023-10-06T00:04:32.079Z,13.22
2023-10-06T00:07:35.939Z,13.22
2023-10-06T00:10:45.317Z,13.24
2023-10-06T00:14:02.057Z,13.26
2023-10-06T00:17:09.954Z,13.31
2023-10-06T00:20:22.795Z,13.33
2023-10-06T00:23:29.410Z,13.35
2023-10-06T00:26:32.203Z,13.36
2023-10-06T00:29:38.321Z,13.40
2023-10-06T00:32:43.673Z,13.44
2023-10-06T00:35:49.171Z,13.43
2023-10-06T00:38:52.870Z,13.45
2023-10-06T00:42:05.365Z,13.43
2023-10-06T00:45:10.255Z,13.43
2023-10-06T00:48:16.277Z,13.49
2023-10-06T00:51:23.107Z,13.53
2023-10-06T00:54:26.417Z,13.55
2023-10-06T00:57:30.150Z,13.58
2023-10-06T01:00:38.319Z,13.57
2023-10-06T01:03:43.909Z,13.58
2023-10-06T01:06:47.754Z,13.57
2023-10-06T01:09:59.050Z,13.56
2023-10-06T01:13:13.718Z,13.54
2023-10-06T01:16:16.708Z,13.58
2023-10-06T01:19:28.272Z,13.57
2023-10-06T01:22:42.681Z,13.66
2023-10-06T01:25:46.227Z,13.71
2023-10-06T01:28:50.781Z,13.75
2023-10-06T01:31:53.666Z,13.83
2023-10-06T01:34:56.557Z,13.88
2023-10-06T01:38:01.804Z,13.88
2023-10-06T01:41:08.278Z,14.00
2023-10-06T01:44:13.779Z,14.02
2023-10-06T01:47:19.502Z,14.04
2023-10-06T01:50:27.656Z,14.06
2023-10-06T01:53:34.984Z,14.11
2023-10-06T01:56:38.180Z,14.09
2023-10-06T01:59:41.078Z,14.14
2023-10-06T02:02:44.006Z,14.16
2023-10-06T02:05:46.987Z,14.16
2023-10-06T02:08:53.587Z,14.22
2023-10-06T02:11:56.656Z,14.25
2023-10-06T02:14:59.848Z,14.28
2023-10-06T02:18:02.635Z,14.30
2023-10-06T02:21:07.925Z,14.36
2023-10-06T02:24:13.897Z,14.39
2023-10-06T02:27:17.335Z,14.32
2023-10-06T02:30:26.502Z,14.37
2023-10-06T02:33:32.237Z,14.36
2023-10-06T02:36:35.240Z,14.33
2023-10-06T02:39:44.552Z,14.40
2023-10-06T02:42:53.128Z,14.40
2023-10-06T02:46:05.194Z,14.41
2023-10-06T02:49:09.664Z,14.44
2023-10-06T02:52:22.118Z,14.43
2023-10-06T02:55:34.716Z,14.49
2023-10-06T02:58:37.518Z,14.51
2023-10-06T03:01:40.629Z,14.53
2023-10-06T03:04:44.893Z,14.56
2023-10-06T03:07:49.729Z,14.56
2023-10-06T03:10:54.164Z,14.61
2023-10-06T03:13:59.814Z,14.68
2023-10-06T03:17:02.915Z,14.68
2023-10-06T03:20:11.653Z,14.69
2023-10-06T03:23:25.622Z,14.73
2023-10-06T03:26:35.003Z,14.73
2023-10-06T03:29:48.741Z,14.70
2023-10-06T03:32:54.055Z,14.74
2023-10-06T03:35:58.988Z,14.79
2023-10-06T03:39:08.470Z,14.75
2023-10-06T03:42:19.133Z,14.82
2023-10-06T03:45:28.420Z,14.82
2023-10-06T03:48:32.689Z,14.81
2023-10-06T03:51:39.072Z,14.82
2023-10-06T03:54:42.956Z,14.84
2023-10-06T03:57:47.596Z,14.83
2023-10-06T04:00:52.976Z,14.82
2023-10-06T04:03:59.816Z,14.80
2023-10-06T04:07:03.105Z,14.77
2023-10-06T04:10:09.033Z,14.74
2023-10-06T04:13:13.757Z,14.72
2023-10-06T04:16:16.708Z,14.64
2023-10-06T04:19:20.043Z,14.59
2023-10-06T04:22:22.997Z,14.52
2023-10-06T04:25:25.989Z,14.48
2023-10-06T04:28:30.275Z,14.52
2023-10-06T04:31:33.976Z,14.45
2023-10-06T04:34:37.205Z,14.35
2023-10-06T04:37:40.212Z,14.35
2023-10-06T04:40:43.413Z,14.30
2023-10-06T04:43:47.655Z,14.22
2023-10-06T04:46:51.479Z,14.21
2023-10-06T04:49:54.360Z,14.22
2023-10-06T04:52:57.320Z,14.20
2023-10-06T04:56:00.088Z,14.18
2023-10-06T04:59:04.449Z,14.19
2023-10-06T05:02:07.316Z,14.20
2023-10-06T05:05:11.673Z,14.18
2023-10-06T05:08:16.161Z,14.14
2023-10-06T05:11:20.666Z,14.15
2023-10-06T05:14:28.795Z,14.17
2023-10-06T05:17:33.147Z,14.13
2023-10-06T05:20:37.157Z,14.19
2023-10-06T05:23:40.101Z,14.21
2023-10-06T05:26:44.706Z,14.18
2023-10-06T05:29:48.955Z,14.23
2023-10-06T05:32:51.795Z,14.08
2023-10-06T05:35:54.693Z,14.11
2023-10-06T05:38:57.547Z,14.24
2023-10-06T05:42:00.319Z,14.15
2023-10-06T05:45:13.844Z,14.13
2023-10-06T05:48:17.305Z,14.17
2023-10-06T05:51:22.724Z,14.22
2023-10-06T05:54:27.969Z,14.25
2023-10-06T05:57:32.269Z,14.21
2023-10-06T06:00:36.697Z,14.29
2023-10-06T06:03:46.638Z,14.35
2023-10-06T06:06:50.311Z,14.38
2023-10-06T06:09:53.195Z,14.38
2023-10-06T06:12:56.150Z,14.48
2023-10-06T06:16:00.926Z,14.63
2023-10-06T06:19:06.883Z,14.78
2023-10-06T06:22:11.349Z,14.82
2023-10-06T06:25:14.283Z,14.93
2023-10-06T06:28:17.883Z,15.12
2023-10-06T06:31:22.503Z,15.19
2023-10-06T06:34:25.522Z,15.24
2023-10-06T06:37:29.015Z,15.21
2023-10-06T06:40:31.927Z,15.27
2023-10-06T06:43:34.728Z,15.24
2023-10-06T06:46:39.809Z,15.20
2023-10-06T06:49:44.569Z,15.34
2023-10-06T06:52:48.703Z,15.45
2023-10-06T06:55:52.554Z,15.41
2023-10-06T06:58:55.400Z,15.47
2023-10-06T07:01:59.941Z,15.50
2023-10-06T07:05:03.068Z,15.52
2023-10-06T07:08:06.688Z,15.60
2023-10-06T07:11:11.485Z,15.71
2023-10-06T07:14:15.880Z,15.72
2023-10-06T07:17:23.396Z,15.85
2023-10-06T07:20:28.560Z,16.09
2023-10-06T07:23:31.443Z,16.16
2023-10-06T07:26:34.452Z,16.08
2023-10-06T07:29:37.263Z,16.11
2023-10-06T07:32:43.023Z,16.19
2023-10-06T07:35:48.554Z,16.15
2023-10-06T07:38:51.770Z,16.28
2023-10-06T07:41:54.665Z,16.45
2023-10-06T07:44:58.956Z,16.53
2023-10-06T07:48:06.249Z,16.74
2023-10-06T07:51:09.396Z,16.71
2023-10-06T07:54:12.233Z,16.80
2023-10-06T07:57:15.359Z,16.85
2023-10-06T08:00:28.528Z,16.87
2023-10-06T08:03:33.947Z,16.97
2023-10-06T08:06:37.242Z,16.92
2023-10-06T08:09:40.471Z,17.12
2023-10-06T08:12:44.615Z,17.00
2023-10-06T08:15:47.407Z,16.86
2023-10-06T08:18:51.674Z,16.98
2023-10-06T08:21:56.981Z,17.20
2023-10-06T08:25:00.065Z,17.27
2023-10-06T08:28:06.296Z,17.36
2023-10-06T08:31:16.096Z,17.32
2023-10-06T08:34:22.742Z,17.39
2023-10-06T08:37:25.667Z,17.50
2023-10-06T08:40:28.921Z,17.63
2023-10-06T08:43:33.501Z,17.68
2023-10-06T08:46:36.479Z,17.71
2023-10-06T08:49:42.071Z,17.76
2023-10-06T08:52:47.185Z,17.80
2023-10-06T08:55:50.227Z,17.77
2023-10-06T08:58:54.483Z,17.86
2023-10-06T09:01:57.282Z,17.86
2023-10-06T09:05:01.696Z,17.98
2023-10-06T09:08:06.572Z,18.13
2023-10-06T09:11:09.439Z,18.10
2023-10-06T09:14:13.604Z,18.17
2023-10-06T09:17:17.344Z,18.13
2023-10-06T09:20:31.503Z,18.31
2023-10-06T09:23:37.727Z,18.34
2023-10-06T09:26:40.714Z,18.44
2023-10-06T09:29:43.518Z,18.35
2023-10-06T09:32:46.454Z,18.27
2023-10-06T09:36:02.916Z,18.64
2023-10-06T09:39:07.701Z,18.71
2023-10-06T09:42:11.198Z,18.73
2023-10-06T09:45:17.098Z,18.91
2023-10-06T09:48:27.476Z,19.00
2023-10-06T09:51:34.653Z,18.94
2023-10-06T09:54:39.587Z,18.82
2023-10-06T09:57:44.625Z,19.17
2023-10-06T10:00:47.729Z,19.35
2023-10-06T10:03:51.703Z,19.44
2023-10-06T10:06:56.716Z,19.28
2023-10-06T10:10:00.157Z,19.15
2023-10-06T10:13:36.546Z,19.20
2023-10-06T10:17:06.117Z,18.80
2023-10-06T10:20:11.044Z,18.87
2023-10-06T10:23:17.255Z,18.65
2023-10-06T10:26:24.199Z,18.65
2023-10-06T10:29:30.716Z,18.85
2023-10-06T10:32:33.488Z,18.85
2023-10-06T10:35:36.624Z,19.02
2023-10-06T10:38:41.206Z,19.04
2023-10-06T10:41:43.975Z,19.19
2023-10-06T10:44:48.756Z,19.15
2023-10-06T10:47:52.752Z,19.16
2023-10-06T10:51:00.788Z,19.27
2023-10-06T10:54:07.211Z,19.31
2023-10-06T10:57:12.842Z,19.32
2023-10-06T11:00:16.969Z,19.28
2023-10-06T11:03:21.644Z,19.29
2023-10-06T11:06:24.660Z,19.45
2023-10-06T11:09:31.353Z,19.51
2023-10-06T11:12:36.354Z,19.64
2023-10-06T11:15:40.017Z,19.99
2023-10-06T11:18:42.916Z,20.32
2023-10-06T11:21:48.325Z,19.83
2023-10-06T11:24:58.415Z,19.82
2023-10-06T11:28:04.787Z,20.03
2023-10-06T11:31:12.355Z,20.11
2023-10-06T11:37:19.861Z,20.20
2023-10-06T11:40:25.968Z,20.38
2023-10-06T11:43:32.128Z,20.45
2023-10-06T11:46:49.417Z,20.50
2023-10-06T11:49:55.214Z,20.10
2023-10-06T11:52:58.050Z,20.24
2023-10-06T11:56:09.133Z,20.21
2023-10-06T11:59:21.401Z,20.18
2023-10-06T12:02:25.333Z,20.32
2023-10-06T12:05:28.691Z,20.55
2023-10-06T12:08:31.514Z,20.25
2023-10-06T12:11:35.852Z,20.06
2023-10-06T12:14:39.211Z,20.09
2023-10-06T12:17:43.282Z,19.90
2023-10-06T12:20:46.336Z,19.99
2023-10-06T12:23:49.366Z,19.83
2023-10-06T12:26:53.724Z,19.74
2023-10-06T12:29:56.790Z,19.74
2023-10-06T12:33:00.439Z,19.73
2023-10-06T12:36:09.251Z,19.62
2023-10-06T12:39:16.981Z,19.59
2023-10-06T12:42:21.065Z,19.66
2023-10-06T12:45:24.283Z,19.78
2023-10-06T12:48:27.168Z,19.67
2023-10-06T12:51:30.436Z,19.77
2023-10-06T12:54:33.123Z,19.82
2023-10-06T12:57:38.929Z,19.76
2023-10-06T13:00:41.825Z,19.68
2023-10-06T13:03:45.135Z,19.68
2023-10-06T13:06:49.766Z,19.58
2023-10-06T13:09:54.774Z,19.48
2023-10-06T13:12:59.306Z,19.50
2023-10-06T13:16:02.151Z,19.32
2023-10-06T13:19:05.659Z,19.19
2023-10-06T13:22:08.425Z,19.09
2023-10-06T13:25:12.396Z,18.75
2023-10-06T13:28:19.460Z,18.46
2023-10-06T13:31:22.802Z,18.36
2023-10-06T13:34:25.566Z,18.26
2023-10-06T13:37:29.364Z,18.39
2023-10-06T13:40:32.494Z,18.28
2023-10-06T13:43:36.625Z,18.26
2023-10-06T13:46:41.791Z,18.17
2023-10-06T13:49:44.801Z,18.17
2023-10-06T13:52:50.836Z,18.19
2023-10-06T13:55:54.317Z,18.13
2023-10-06T13:58:58.500Z,18.01
2023-10-06T14:02:04.033Z,18.21
2023-10-06T14:05:08.497Z,18.18
2023-10-06T14:08:12.483Z,18.11
2023-10-06T14:11:15.401Z,18.11
2023-10-06T14:14:39.694Z,18.14
2023-10-06T14:17:43.501Z,18.04
2023-10-06T14:20:50.956Z,17.96
2023-10-06T14:23:56.004Z,17.93
2023-10-06T14:26:59.927Z,18.06
2023-10-06T14:30:05.354Z,17.94
2023-10-06T14:33:18.968Z,17.93
2023-10-06T14:36:26.982Z,17.95
2023-10-06T14:39:47.054Z,17.93
2023-10-06T14:43:07.344Z,17.87
2023-10-06T14:46:11.496Z,17.80
2023-10-06T14:49:15.111Z,17.86
2023-10-06T14:52:17.971Z,17.65
2023-10-06T14:55:22.707Z,17.71
2023-10-06T14:58:25.567Z,17.66
2023-10-06T15:01:30.429Z,17.61
2023-10-06T15:04:33.279Z,17.63
2023-10-06T15:07:38.058Z,17.66
2023-10-06T15:10:42.426Z,17.58
2023-10-06T15:13:48.291Z,17.66
2023-10-06T15:16:52.595Z,17.56
2023-10-06T15:20:00.092Z,17.61
2023-10-06T15:23:02.892Z,17.61
2023-10-06T15:26:08.508Z,17.78
2023-10-06T15:29:12.836Z,17.62
2023-10-06T15:32:17.231Z,17.43
2023-10-06T15:35:20.142Z,17.60
2023-10-06T15:38:23.266Z,17.69
2023-10-06T15:41:26.369Z,17.67
2023-10-06T15:44:29.226Z,17.57
2023-10-06T15:47:34.784Z,17.63
2023-10-06T15:50:37.989Z,17.86
2023-10-06T15:53:42.511Z,17.68
2023-10-06T15:56:47.784Z,17.62
2023-10-06T15:59:50.730Z,17.59
2023-10-06T16:02:55.811Z,17.63
2023-10-06T16:05:59.108Z,17.58
2023-10-06T16:09:09.101Z,17.55
2023-10-06T16:12:14.435Z,17.49
2023-10-06T16:15:19.382Z,17.52
2023-10-06T16:18:23.501Z,17.56
2023-10-06T16:21:26.400Z,17.56
2023-10-06T16:24:29.154Z,17.44
2023-10-06T16:27:33.010Z,17.54
2023-10-06T16:30:35.876Z,17.56
2023-10-06T16:33:42.367Z,17.47
2023-10-06T16:36:45.283Z,17.42
2023-10-06T16:39:48.241Z,17.47
2023-10-06T16:42:50.945Z,17.38
2023-10-06T16:45:53.731Z,17.40
2023-10-06T16:48:58.552Z,17.44
2023-10-06T16:52:01.407Z,17.43
2023-10-06T16:55:07.046Z,17.45
2023-10-06T16:58:10.722Z,17.38
2023-10-06T17:01:13.508Z,17.42
2023-10-06T17:04:19.533Z,17.36
2023-10-06T17:07:22.520Z,17.38
2023-10-06T17:10:25.270Z,17.44
2023-10-06T17:13:29.595Z,17.38
2023-10-06T17:16:32.558Z,17.26
2023-10-06T17:19:38.500Z,17.51
2023-10-06T17:22:41.392Z,17.37
2023-10-06T17:25:44.154Z,17.34
2023-10-06T17:28:47.292Z,17.42
2023-10-06T17:31:50.197Z,17.42
2023-10-06T17:34:54.607Z,17.36
2023-10-06T17:37:58.592Z,17.42
2023-10-06T17:41:01.408Z,17.38
2023-10-06T17:44:05.011Z,17.43
2023-10-06T17:47:08.569Z,17.48
2023-10-06T17:50:13.730Z,17.52
2023-10-06T17:53:16.591Z,17.63
2023-10-06T17:56:19.903Z,17.57
2023-10-06T17:59:22.884Z,17.60
2023-10-06T18:02:26.211Z,17.60
2023-10-06T18:05:30.305Z,17.61
2023-10-06T18:08:33.743Z,17.61
2023-10-06T18:11:36.607Z,17.65
2023-10-06T18:14:39.802Z,17.57
2023-10-06T18:17:43.039Z,17.69
2023-10-06T18:20:47.618Z,17.56
2023-10-06T18:23:50.515Z,17.55
2023-10-06T18:26:53.238Z,17.64
2023-10-06T18:29:56.284Z,17.63
2023-10-06T18:32:59.165Z,17.66
2023-10-06T18:36:03.387Z,17.63
2023-10-06T18:39:07.726Z,17.61
2023-10-06T18:42:10.704Z,17.49
2023-10-06T18:45:14.418Z,17.44
2023-10-06T18:48:18.714Z,17.50
2023-10-06T18:51:23.496Z,17.46
2023-10-06T18:54:26.637Z,17.43
2023-10-06T18:57:30.608Z,17.43
2023-10-06T19:00:33.812Z,17.47
2023-10-06T19:03:38.188Z,17.55
2023-10-06T19:06:45.432Z,17.57
2023-10-06T19:09:48.377Z,17.60
2023-10-06T19:12:51.377Z,17.66
2023-10-06T19:15:55.013Z,17.67
2023-10-06T19:19:01.555Z,17.60
2023-10-06T19:22:07.261Z,17.68
2023-10-06T19:25:12.318Z,17.76
2023-10-06T19:28:15.555Z,17.69
2023-10-06T19:31:19.943Z,17.68
2023-10-06T19:34:25.120Z,17.70
2023-10-06T19:37:30.312Z,17.71
2023-10-06T19:40:33.606Z,17.75
2023-10-06T19:43:37.010Z,17.82
2023-10-06T19:46:40.547Z,17.76
2023-10-06T19:49:43.939Z,17.91
2023-10-06T19:52:48.463Z,17.90
2023-10-06T19:55:53.335Z,17.94
2023-10-06T19:58:56.539Z,17.84
2023-10-06T20:01:59.680Z,17.89
2023-10-06T20:05:02.675Z,17.80
2023-10-06T20:08:07.929Z,17.94
2023-10-06T20:11:13.233Z,17.91
2023-10-06T20:14:15.944Z,17.82
2023-10-06T20:17:18.903Z,17.92
2023-10-06T20:20:22.076Z,18.09
2023-10-06T20:23:27.502Z,17.93
2023-10-06T20:26:30.450Z,17.94
2023-10-06T20:29:35.181Z,18.00
2023-10-06T20:32:38.099Z,17.95
2023-10-06T20:35:41.116Z,17.96
2023-10-06T20:38:45.289Z,17.99
2023-10-06T20:41:49.209Z,17.97
2023-10-06T20:44:52.966Z,17.98
2023-10-06T20:47:56.496Z,18.02
2023-10-06T20:51:01.789Z,18.12
2023-10-06T20:54:09.082Z,18.04
2023-10-06T20:57:12.422Z,18.13
2023-10-06T21:00:21.528Z,18.01
2023-10-06T21:03:26.988Z,17.95
2023-10-06T21:06:30.158Z,18.00
2023-10-06T21:09:34.716Z,17.97
2023-10-06T21:12:39.665Z,17.96
2023-10-06T21:15:43.473Z,17.97
2023-10-06T21:18:46.425Z,17.90
2023-10-06T21:21:49.588Z,17.90
2023-10-06T21:24:54.953Z,17.84
2023-10-06T21:27:58.032Z,17.86
2023-10-06T21:31:06.116Z,17.87
2023-10-06T21:34:12.393Z,17.84
2023-10-06T21:37:15.696Z,17.74
2023-10-06T21:40:20.319Z,17.72
2023-10-06T21:43:31.161Z,17.64
2023-10-06T21:46:34.133Z,17.62
2023-10-06T21:49:43.267Z,17.64
2023-10-06T21:52:46.260Z,17.62
2023-10-06T21:55:51.134Z,17.48
2023-10-06T21:58:54.184Z,17.54
2023-10-06T22:01:58.951Z,17.50
2023-10-06T22:05:02.280Z,17.47
2023-10-06T22:08:07.428Z,17.33
2023-10-06T22:11:13.912Z,17.44
2023-10-06T22:14:20.713Z,17.35
2023-10-06T22:17:23.645Z,17.39
2023-10-06T22:20:32.064Z,17.41
2023-10-06T22:23:36.857Z,17.43
2023-10-06T22:26:41.528Z,17.50
2023-10-06T22:29:48.494Z,17.59
2023-10-06T22:32:51.753Z,17.60
2023-10-06T22:35:54.713Z,17.66
2023-10-06T22:38:57.568Z,17.64
2023-10-06T22:42:02.134Z,17.63
2023-10-06T22:45:09.004Z,17.82
2023-10-06T22:48:13.457Z,17.77
2023-10-06T22:51:16.927Z,17.82
2023-10-06T22:54:19.978Z,17.68
2023-10-06T22:57:24.543Z,17.78
2023-10-06T23:00:30.247Z,17.75
2023-10-06T23:03:33.755Z,17.74
2023-10-06T23:06:37.094Z,17.86
2023-10-06T23:09:40.744Z,17.81
2023-10-06T23:12:48.603Z,17.78
2023-10-06T23:15:51.598Z,17.74
2023-10-06T23:18:56.749Z,17.88
2023-10-06T23:22:02.787Z,18.00
2023-10-06T23:25:09.333Z,17.93
2023-10-06T23:28:13.820Z,17.91
2023-10-06T23:31:17.158Z,17.96
2023-10-06T23:34:20.276Z,17.99
2023-10-06T23:37:23.561Z,18.02
2023-10-06T23:40:27.011Z,18.02
2023-10-06T23:43:31.957Z,18.01
2023-10-06T23:46:35.013Z,17.92
2023-10-06T23:49:42.493Z,17.98
2023-10-06T23:52:46.733Z,17.97
2023-10-06T23:55:50.562Z,18.00
2023-10-06T23:58:55.433Z,17.96
